sensor_id;sensor_type;location;lat;lon;timestamp;P1;durP1;ratioP1;P2;durP2;ratioP2
20110;SDS011;10216;42.658;23.248;2023-09-12T00:01:05;0.93;;;0.93;;
20110;SDS011;10216;42.658;23.248;2023-09-12T00:03:30;1.33;;;0.83;;
20110;SDS011;10216;42.658;23.248;2023-09-12T00:05:56;1.07;;;0.80;;
20110;SDS011;10216;42.658;23.248;2023-09-12T00:08:22;1.60;;;0.90;;
20110;SDS011;10216;42.658;23.248;2023-09-12T00:10:58;0.97;;;0.77;;
20110;SDS011;10216;42.658;23.248;2023-09-12T00:13:23;0.97;;;0.80;;
20110;SDS011;10216;42.658;23.248;2023-09-12T00:15:48;1.30;;;1.20;;
20110;SDS011;10216;42.658;23.248;2023-09-12T00:18:13;1.30;;;0.87;;
20110;SDS011;10216;42.658;23.248;2023-09-12T00:20:38;2.50;;;1.10;;
20110;SDS011;10216;42.658;23.248;2023-09-12T00:23:04;1.57;;;0.97;;
20110;SDS011;10216;42.658;23.248;2023-09-12T00:25:30;1.30;;;0.77;;
20110;SDS011;10216;42.658;23.248;2023-09-12T00:27:55;1.40;;;1.30;;
20110;SDS011;10216;42.658;23.248;2023-09-12T00:30:20;1.60;;;0.90;;
20110;SDS011;10216;42.658;23.248;2023-09-12T00:32:45;1.00;;;0.90;;
20110;SDS011;10216;42.658;23.248;2023-09-12T00:35:11;0.70;;;0.70;;
20110;SDS011;10216;42.658;23.248;2023-09-12T00:37:36;1.13;;;0.93;;
20110;SDS011;10216;42.658;23.248;2023-09-12T00:40:01;0.90;;;0.90;;
20110;SDS011;10216;42.658;23.248;2023-09-12T00:42:26;0.80;;;0.80;;
20110;SDS011;10216;42.658;23.248;2023-09-12T00:44:52;0.77;;;0.70;;
20110;SDS011;10216;42.658;23.248;2023-09-12T00:47:17;1.20;;;0.97;;
20110;SDS011;10216;42.658;23.248;2023-09-12T00:49:43;1.53;;;1.00;;
20110;SDS011;10216;42.658;23.248;2023-09-12T00:52:08;1.13;;;1.00;;
20110;SDS011;10216;42.658;23.248;2023-09-12T00:54:33;1.13;;;0.90;;
20110;SDS011;10216;42.658;23.248;2023-09-12T00:56:58;0.70;;;0.70;;
20110;SDS011;10216;42.658;23.248;2023-09-12T00:59:24;2.97;;;0.70;;
20110;SDS011;10216;42.658;23.248;2023-09-12T01:01:49;1.13;;;0.97;;
20110;SDS011;10216;42.658;23.248;2023-09-12T01:04:15;1.13;;;0.80;;
20110;SDS011;10216;42.658;23.248;2023-09-12T01:06:40;1.13;;;0.90;;
20110;SDS011;10216;42.658;23.248;2023-09-12T01:09:05;1.87;;;1.20;;
20110;SDS011;10216;42.658;23.248;2023-09-12T01:11:31;0.90;;;0.80;;
20110;SDS011;10216;42.658;23.248;2023-09-12T01:13:56;0.87;;;0.73;;
20110;SDS011;10216;42.658;23.248;2023-09-12T01:16:22;1.53;;;0.97;;
20110;SDS011;10216;42.658;23.248;2023-09-12T01:18:47;0.80;;;0.80;;
20110;SDS011;10216;42.658;23.248;2023-09-12T01:28:34;3.10;;;0.90;;
20110;SDS011;10216;42.658;23.248;2023-09-12T01:31:00;0.97;;;0.97;;
20110;SDS011;10216;42.658;23.248;2023-09-12T01:33:25;1.20;;;0.83;;
20110;SDS011;10216;42.658;23.248;2023-09-12T01:35:51;0.70;;;0.70;;
20110;SDS011;10216;42.658;23.248;2023-09-12T01:38:16;0.60;;;0.60;;
20110;SDS011;10216;42.658;23.248;2023-09-12T01:40:47;1.30;;;0.60;;
20110;SDS011;10216;42.658;23.248;2023-09-12T01:43:13;0.90;;;0.70;;
20110;SDS011;10216;42.658;23.248;2023-09-12T01:45:40;0.73;;;0.73;;
20110;SDS011;10216;42.658;23.248;2023-09-12T01:48:05;1.00;;;0.90;;
20110;SDS011;10216;42.658;23.248;2023-09-12T01:50:31;0.73;;;0.73;;
20110;SDS011;10216;42.658;23.248;2023-09-12T01:52:57;1.00;;;0.90;;
20110;SDS011;10216;42.658;23.248;2023-09-12T01:55:23;0.83;;;0.83;;
20110;SDS011;10216;42.658;23.248;2023-09-12T01:57:49;1.57;;;0.90;;
20110;SDS011;10216;42.658;23.248;2023-09-12T02:00:16;2.07;;;1.20;;
20110;SDS011;10216;42.658;23.248;2023-09-12T02:02:42;1.17;;;0.80;;
20110;SDS011;10216;42.658;23.248;2023-09-12T02:05:12;1.23;;;1.10;;
20110;SDS011;10216;42.658;23.248;2023-09-12T02:07:39;0.97;;;0.80;;
20110;SDS011;10216;42.658;23.248;2023-09-12T02:10:05;1.43;;;0.70;;
20110;SDS011;10216;42.658;23.248;2023-09-12T02:12:31;1.47;;;1.30;;
20110;SDS011;10216;42.658;23.248;2023-09-12T02:14:56;2.17;;;1.03;;
20110;SDS011;10216;42.658;23.248;2023-09-12T02:17:21;1.10;;;1.07;;
20110;SDS011;10216;42.658;23.248;2023-09-12T02:19:47;1.20;;;1.10;;
20110;SDS011;10216;42.658;23.248;2023-09-12T02:22:12;1.37;;;0.67;;
20110;SDS011;10216;42.658;23.248;2023-09-12T02:24:38;1.17;;;0.77;;
20110;SDS011;10216;42.658;23.248;2023-09-12T02:27:03;0.70;;;0.70;;
20110;SDS011;10216;42.658;23.248;2023-09-12T02:29:28;0.80;;;0.70;;
20110;SDS011;10216;42.658;23.248;2023-09-12T02:31:55;1.80;;;1.00;;
20110;SDS011;10216;42.658;23.248;2023-09-12T02:34:20;0.90;;;0.90;;
20110;SDS011;10216;42.658;23.248;2023-09-12T02:36:45;1.70;;;1.10;;
20110;SDS011;10216;42.658;23.248;2023-09-12T02:39:11;0.80;;;0.80;;
20110;SDS011;10216;42.658;23.248;2023-09-12T02:41:36;2.77;;;1.23;;
20110;SDS011;10216;42.658;23.248;2023-09-12T02:44:01;1.93;;;1.10;;
20110;SDS011;10216;42.658;23.248;2023-09-12T02:46:26;2.00;;;1.80;;
20110;SDS011;10216;42.658;23.248;2023-09-12T02:48:51;0.90;;;0.83;;
20110;SDS011;10216;42.658;23.248;2023-09-12T02:51:17;1.60;;;0.80;;
20110;SDS011;10216;42.658;23.248;2023-09-12T02:53:42;0.80;;;0.80;;
20110;SDS011;10216;42.658;23.248;2023-09-12T02:56:07;0.93;;;0.80;;
20110;SDS011;10216;42.658;23.248;2023-09-12T02:58:32;1.43;;;1.20;;
20110;SDS011;10216;42.658;23.248;2023-09-12T03:00:58;0.60;;;0.60;;
20110;SDS011;10216;42.658;23.248;2023-09-12T03:03:23;1.57;;;1.10;;
20110;SDS011;10216;42.658;23.248;2023-09-12T03:05:56;1.03;;;1.00;;
20110;SDS011;10216;42.658;23.248;2023-09-12T03:08:22;1.53;;;1.43;;
20110;SDS011;10216;42.658;23.248;2023-09-12T03:10:52;0.70;;;0.70;;
20110;SDS011;10216;42.658;23.248;2023-09-12T03:13:17;0.83;;;0.83;;
20110;SDS011;10216;42.658;23.248;2023-09-12T03:15:43;1.20;;;0.73;;
20110;SDS011;10216;42.658;23.248;2023-09-12T03:18:09;1.87;;;1.07;;
20110;SDS011;10216;42.658;23.248;2023-09-12T03:20:37;1.23;;;0.80;;
20110;SDS011;10216;42.658;23.248;2023-09-12T03:23:02;1.93;;;1.03;;
20110;SDS011;10216;42.658;23.248;2023-09-12T03:25:27;2.83;;;1.23;;
20110;SDS011;10216;42.658;23.248;2023-09-12T03:27:53;0.90;;;0.90;;
20110;SDS011;10216;42.658;23.248;2023-09-12T03:30:19;1.27;;;1.17;;
20110;SDS011;10216;42.658;23.248;2023-09-12T03:32:44;1.67;;;1.20;;
20110;SDS011;10216;42.658;23.248;2023-09-12T03:35:10;1.83;;;1.23;;
20110;SDS011;10216;42.658;23.248;2023-09-12T03:37:35;1.33;;;0.90;;
20110;SDS011;10216;42.658;23.248;2023-09-12T03:40:05;2.03;;;1.20;;
20110;SDS011;10216;42.658;23.248;2023-09-12T03:42:30;1.30;;;1.20;;
20110;SDS011;10216;42.658;23.248;2023-09-12T03:44:55;2.27;;;1.60;;
20110;SDS011;10216;42.658;23.248;2023-09-12T03:47:21;2.20;;;1.23;;
20110;SDS011;10216;42.658;23.248;2023-09-12T03:49:46;1.27;;;1.17;;
20110;SDS011;10216;42.658;23.248;2023-09-12T03:52:11;2.03;;;1.70;;
20110;SDS011;10216;42.658;23.248;2023-09-12T03:54:36;2.60;;;1.53;;
20110;SDS011;10216;42.658;23.248;2023-09-12T03:57:02;2.77;;;1.73;;
20110;SDS011;10216;42.658;23.248;2023-09-12T03:59:27;1.83;;;1.60;;
20110;SDS011;10216;42.658;23.248;2023-09-12T04:01:52;2.33;;;1.73;;
20110;SDS011;10216;42.658;23.248;2023-09-12T04:04:17;1.50;;;1.30;;
20110;SDS011;10216;42.658;23.248;2023-09-12T04:06:43;1.80;;;1.50;;
20110;SDS011;10216;42.658;23.248;2023-09-12T04:09:08;0.97;;;0.80;;
20110;SDS011;10216;42.658;23.248;2023-09-12T04:11:33;1.20;;;1.10;;
20110;SDS011;10216;42.658;23.248;2023-09-12T04:13:58;0.80;;;0.80;;
20110;SDS011;10216;42.658;23.248;2023-09-12T04:16:23;1.07;;;0.93;;
20110;SDS011;10216;42.658;23.248;2023-09-12T04:18:49;1.57;;;1.00;;
20110;SDS011;10216;42.658;23.248;2023-09-12T04:21:14;1.73;;;0.93;;
20110;SDS011;10216;42.658;23.248;2023-09-12T04:23:40;4.10;;;1.17;;
20110;SDS011;10216;42.658;23.248;2023-09-12T04:26:05;0.87;;;0.80;;
20110;SDS011;10216;42.658;23.248;2023-09-12T04:28:30;1.20;;;0.80;;
20110;SDS011;10216;42.658;23.248;2023-09-12T04:31:02;1.60;;;0.93;;
20110;SDS011;10216;42.658;23.248;2023-09-12T04:33:28;1.23;;;1.10;;
20110;SDS011;10216;42.658;23.248;2023-09-12T04:35:53;1.17;;;0.90;;
20110;SDS011;10216;42.658;23.248;2023-09-12T04:38:18;2.23;;;1.03;;
20110;SDS011;10216;42.658;23.248;2023-09-12T04:40:52;1.63;;;1.23;;
20110;SDS011;10216;42.658;23.248;2023-09-12T04:43:18;1.30;;;1.20;;
20110;SDS011;10216;42.658;23.248;2023-09-12T04:45:43;1.30;;;1.20;;
20110;SDS011;10216;42.658;23.248;2023-09-12T04:48:08;1.20;;;0.90;;
20110;SDS011;10216;42.658;23.248;2023-09-12T04:50:33;1.00;;;0.90;;
20110;SDS011;10216;42.658;23.248;2023-09-12T04:52:59;2.27;;;0.90;;
20110;SDS011;10216;42.658;23.248;2023-09-12T04:55:24;2.20;;;1.20;;
20110;SDS011;10216;42.658;23.248;2023-09-12T04:57:49;1.23;;;0.80;;
20110;SDS011;10216;42.658;23.248;2023-09-12T05:00:14;1.10;;;1.00;;
20110;SDS011;10216;42.658;23.248;2023-09-12T05:02:40;0.70;;;0.70;;
20110;SDS011;10216;42.658;23.248;2023-09-12T05:05:05;1.93;;;0.97;;
20110;SDS011;10216;42.658;23.248;2023-09-12T05:07:30;1.40;;;1.00;;
20110;SDS011;10216;42.658;23.248;2023-09-12T05:09:56;1.53;;;1.00;;
20110;SDS011;10216;42.658;23.248;2023-09-12T05:12:21;3.80;;;1.00;;
20110;SDS011;10216;42.658;23.248;2023-09-12T05:14:46;1.30;;;1.17;;
20110;SDS011;10216;42.658;23.248;2023-09-12T05:17:11;1.87;;;1.37;;
20110;SDS011;10216;42.658;23.248;2023-09-12T05:19:36;1.00;;;1.00;;
20110;SDS011;10216;42.658;23.248;2023-09-12T05:22:02;1.83;;;1.30;;
20110;SDS011;10216;42.658;23.248;2023-09-12T05:24:27;1.40;;;1.30;;
20110;SDS011;10216;42.658;23.248;2023-09-12T05:26:52;1.37;;;1.20;;
20110;SDS011;10216;42.658;23.248;2023-09-12T05:29:18;1.27;;;1.13;;
20110;SDS011;10216;42.658;23.248;2023-09-12T05:31:43;3.13;;;1.20;;
20110;SDS011;10216;42.658;23.248;2023-09-12T05:34:08;1.33;;;1.20;;
20110;SDS011;10216;42.658;23.248;2023-09-12T05:36:34;2.37;;;1.50;;
20110;SDS011;10216;42.658;23.248;2023-09-12T05:38:59;2.47;;;1.57;;
20110;SDS011;10216;42.658;23.248;2023-09-12T05:41:24;3.23;;;1.60;;
20110;SDS011;10216;42.658;23.248;2023-09-12T05:43:49;3.17;;;2.20;;
20110;SDS011;10216;42.658;23.248;2023-09-12T05:46:15;3.20;;;2.10;;
20110;SDS011;10216;42.658;23.248;2023-09-12T05:48:40;3.77;;;2.13;;
20110;SDS011;10216;42.658;23.248;2023-09-12T05:51:05;4.40;;;1.90;;
20110;SDS011;10216;42.658;23.248;2023-09-12T05:53:30;3.03;;;2.20;;
20110;SDS011;10216;42.658;23.248;2023-09-12T05:55:55;2.90;;;1.90;;
20110;SDS011;10216;42.658;23.248;2023-09-12T05:58:21;2.20;;;1.77;;
20110;SDS011;10216;42.658;23.248;2023-09-12T06:00:46;3.07;;;2.20;;
20110;SDS011;10216;42.658;23.248;2023-09-12T06:03:13;2.80;;;1.97;;
20110;SDS011;10216;42.658;23.248;2023-09-12T06:05:39;3.07;;;1.90;;
20110;SDS011;10216;42.658;23.248;2023-09-12T06:08:04;2.47;;;1.63;;
20110;SDS011;10216;42.658;23.248;2023-09-12T06:10:29;2.27;;;1.80;;
20110;SDS011;10216;42.658;23.248;2023-09-12T06:12:55;2.17;;;1.90;;
20110;SDS011;10216;42.658;23.248;2023-09-12T06:15:20;5.20;;;1.90;;
20110;SDS011;10216;42.658;23.248;2023-09-12T06:17:45;2.00;;;1.67;;
20110;SDS011;10216;42.658;23.248;2023-09-12T06:20:10;2.20;;;2.00;;
20110;SDS011;10216;42.658;23.248;2023-09-12T06:22:36;2.10;;;1.83;;
20110;SDS011;10216;42.658;23.248;2023-09-12T06:25:01;4.83;;;2.00;;
20110;SDS011;10216;42.658;23.248;2023-09-12T06:27:26;2.40;;;2.00;;
20110;SDS011;10216;42.658;23.248;2023-09-12T06:29:52;1.50;;;1.40;;
20110;SDS011;10216;42.658;23.248;2023-09-12T06:32:17;3.17;;;2.07;;
20110;SDS011;10216;42.658;23.248;2023-09-12T06:34:43;2.20;;;1.90;;
20110;SDS011;10216;42.658;23.248;2023-09-12T06:37:08;3.63;;;1.63;;
20110;SDS011;10216;42.658;23.248;2023-09-12T06:39:34;2.13;;;1.93;;
20110;SDS011;10216;42.658;23.248;2023-09-12T06:41:59;2.10;;;1.90;;
20110;SDS011;10216;42.658;23.248;2023-09-12T06:44:24;1.97;;;1.87;;
20110;SDS011;10216;42.658;23.248;2023-09-12T06:46:49;2.83;;;2.00;;
20110;SDS011;10216;42.658;23.248;2023-09-12T06:49:14;2.13;;;1.80;;
20110;SDS011;10216;42.658;23.248;2023-09-12T06:51:40;3.33;;;1.70;;
20110;SDS011;10216;42.658;23.248;2023-09-12T06:54:05;2.00;;;1.80;;
20110;SDS011;10216;42.658;23.248;2023-09-12T06:56:30;1.93;;;1.73;;
20110;SDS011;10216;42.658;23.248;2023-09-12T06:58:56;3.33;;;2.10;;
20110;SDS011;10216;42.658;23.248;2023-09-12T07:01:22;2.73;;;2.10;;
20110;SDS011;10216;42.658;23.248;2023-09-12T07:03:48;6.00;;;1.70;;
20110;SDS011;10216;42.658;23.248;2023-09-12T07:06:13;2.07;;;1.63;;
20110;SDS011;10216;42.658;23.248;2023-09-12T07:08:39;2.70;;;1.83;;
20110;SDS011;10216;42.658;23.248;2023-09-12T07:11:04;1.83;;;1.73;;
20110;SDS011;10216;42.658;23.248;2023-09-12T07:13:31;2.47;;;1.73;;
20110;SDS011;10216;42.658;23.248;2023-09-12T07:15:57;3.07;;;2.33;;
20110;SDS011;10216;42.658;23.248;2023-09-12T07:18:22;2.20;;;2.00;;
20110;SDS011;10216;42.658;23.248;2023-09-12T07:20:56;4.13;;;2.17;;
20110;SDS011;10216;42.658;23.248;2023-09-12T07:23:21;5.03;;;2.20;;
20110;SDS011;10216;42.658;23.248;2023-09-12T07:25:46;3.03;;;2.20;;
20110;SDS011;10216;42.658;23.248;2023-09-12T07:28:11;2.87;;;1.80;;
20110;SDS011;10216;42.658;23.248;2023-09-12T07:30:37;2.13;;;1.73;;
20110;SDS011;10216;42.658;23.248;2023-09-12T07:33:03;1.70;;;1.60;;
20110;SDS011;10216;42.658;23.248;2023-09-12T07:35:29;2.00;;;1.80;;
20110;SDS011;10216;42.658;23.248;2023-09-12T07:37:55;2.93;;;2.23;;
20110;SDS011;10216;42.658;23.248;2023-09-12T07:40:20;3.97;;;2.03;;
20110;SDS011;10216;42.658;23.248;2023-09-12T07:42:46;4.70;;;2.03;;
20110;SDS011;10216;42.658;23.248;2023-09-12T07:45:11;1.80;;;1.60;;
20110;SDS011;10216;42.658;23.248;2023-09-12T07:47:36;3.90;;;1.60;;
20110;SDS011;10216;42.658;23.248;2023-09-12T07:50:02;2.63;;;1.83;;
20110;SDS011;10216;42.658;23.248;2023-09-12T07:52:28;2.10;;;1.53;;
20110;SDS011;10216;42.658;23.248;2023-09-12T07:54:59;3.80;;;1.70;;
20110;SDS011;10216;42.658;23.248;2023-09-12T07:57:24;2.20;;;1.80;;
20110;SDS011;10216;42.658;23.248;2023-09-12T07:59:49;1.60;;;1.50;;
20110;SDS011;10216;42.658;23.248;2023-09-12T08:02:15;2.13;;;1.57;;
20110;SDS011;10216;42.658;23.248;2023-09-12T08:04:40;1.77;;;1.67;;
20110;SDS011;10216;42.658;23.248;2023-09-12T08:07:06;5.17;;;2.00;;
20110;SDS011;10216;42.658;23.248;2023-09-12T08:09:50;2.27;;;1.60;;
20110;SDS011;10216;42.658;23.248;2023-09-12T08:12:17;2.03;;;1.60;;
20110;SDS011;10216;42.658;23.248;2023-09-12T08:14:42;3.30;;;1.93;;
20110;SDS011;10216;42.658;23.248;2023-09-12T08:17:08;2.43;;;1.87;;
20110;SDS011;10216;42.658;23.248;2023-09-12T08:19:33;1.87;;;1.70;;
20110;SDS011;10216;42.658;23.248;2023-09-12T08:21:58;2.97;;;1.63;;
20110;SDS011;10216;42.658;23.248;2023-09-12T08:24:24;3.83;;;1.43;;
20110;SDS011;10216;42.658;23.248;2023-09-12T08:26:49;1.53;;;1.40;;
20110;SDS011;10216;42.658;23.248;2023-09-12T08:29:14;1.50;;;1.40;;
20110;SDS011;10216;42.658;23.248;2023-09-12T08:31:40;2.40;;;1.70;;
20110;SDS011;10216;42.658;23.248;2023-09-12T08:34:05;1.67;;;1.47;;
20110;SDS011;10216;42.658;23.248;2023-09-12T08:36:30;1.37;;;1.27;;
20110;SDS011;10216;42.658;23.248;2023-09-12T08:38:55;2.83;;;1.30;;
20110;SDS011;10216;42.658;23.248;2023-09-12T08:41:21;1.80;;;1.50;;
20110;SDS011;10216;42.658;23.248;2023-09-12T08:43:46;1.47;;;1.37;;
20110;SDS011;10216;42.658;23.248;2023-09-12T08:46:11;1.93;;;1.40;;
20110;SDS011;10216;42.658;23.248;2023-09-12T08:48:37;1.60;;;1.30;;
20110;SDS011;10216;42.658;23.248;2023-09-12T08:51:03;1.88;;;1.50;;
20110;SDS011;10216;42.658;23.248;2023-09-12T08:53:29;2.78;;;1.35;;
20110;SDS011;10216;42.658;23.248;2023-09-12T08:55:54;3.15;;;1.58;;
20110;SDS011;10216;42.658;23.248;2023-09-12T08:58:20;1.85;;;1.55;;
20110;SDS011;10216;42.658;23.248;2023-09-12T09:00:45;1.70;;;1.40;;
20110;SDS011;10216;42.658;23.248;2023-09-12T09:03:11;1.27;;;1.15;;
20110;SDS011;10216;42.658;23.248;2023-09-12T09:05:37;1.55;;;1.30;;
20110;SDS011;10216;42.658;23.248;2023-09-12T09:08:04;1.33;;;1.23;;
20110;SDS011;10216;42.658;23.248;2023-09-12T09:10:30;1.58;;;1.27;;
20110;SDS011;10216;42.658;23.248;2023-09-12T09:12:57;1.63;;;1.50;;
20110;SDS011;10216;42.658;23.248;2023-09-12T09:15:26;3.10;;;1.42;;
20110;SDS011;10216;42.658;23.248;2023-09-12T09:17:52;1.48;;;1.38;;
20110;SDS011;10216;42.658;23.248;2023-09-12T09:20:21;1.83;;;1.42;;
20110;SDS011;10216;42.658;23.248;2023-09-12T09:23:08;3.63;;;1.40;;
20110;SDS011;10216;42.658;23.248;2023-09-12T09:25:43;1.70;;;1.60;;
20110;SDS011;10216;42.658;23.248;2023-09-12T09:28:20;3.20;;;1.80;;
20110;SDS011;10216;42.658;23.248;2023-09-12T09:30:46;1.80;;;1.45;;
20110;SDS011;10216;42.658;23.248;2023-09-12T09:33:12;1.95;;;1.50;;
20110;SDS011;10216;42.658;23.248;2023-09-12T09:35:37;1.55;;;1.13;;
20110;SDS011;10216;42.658;23.248;2023-09-12T09:38:05;2.05;;;1.67;;
20110;SDS011;10216;42.658;23.248;2023-09-12T09:40:31;1.65;;;1.40;;
20110;SDS011;10216;42.658;23.248;2023-09-12T09:43:00;1.15;;;1.10;;
20110;SDS011;10216;42.658;23.248;2023-09-12T09:45:29;1.98;;;1.60;;
20110;SDS011;10216;42.658;23.248;2023-09-12T09:48:04;1.80;;;1.33;;
20110;SDS011;10216;42.658;23.248;2023-09-12T09:50:33;2.80;;;1.50;;
20110;SDS011;10216;42.658;23.248;2023-09-12T09:52:58;2.05;;;1.58;;
20110;SDS011;10216;42.658;23.248;2023-09-12T09:55:23;2.53;;;1.48;;
20110;SDS011;10216;42.658;23.248;2023-09-12T09:57:49;2.25;;;1.45;;
20110;SDS011;10216;42.658;23.248;2023-09-12T10:00:17;1.70;;;1.60;;
20110;SDS011;10216;42.658;23.248;2023-09-12T10:02:42;1.38;;;1.27;;
20110;SDS011;10216;42.658;23.248;2023-09-12T10:05:09;2.22;;;1.30;;
20110;SDS011;10216;42.658;23.248;2023-09-12T10:07:34;2.45;;;1.58;;
20110;SDS011;10216;42.658;23.248;2023-09-12T10:10:02;1.42;;;1.33;;
20110;SDS011;10216;42.658;23.248;2023-09-12T10:12:29;2.05;;;1.52;;
20110;SDS011;10216;42.658;23.248;2023-09-12T10:14:57;1.60;;;1.50;;
20110;SDS011;10216;42.658;23.248;2023-09-12T10:17:22;3.03;;;1.67;;
20110;SDS011;10216;42.658;23.248;2023-09-12T10:19:54;1.73;;;1.40;;
20110;SDS011;10216;42.658;23.248;2023-09-12T10:22:21;2.70;;;1.63;;
20110;SDS011;10216;42.658;23.248;2023-09-12T10:24:49;2.25;;;1.63;;
20110;SDS011;10216;42.658;23.248;2023-09-12T10:27:14;2.00;;;1.55;;
20110;SDS011;10216;42.658;23.248;2023-09-12T10:29:40;1.67;;;1.35;;
20110;SDS011;10216;42.658;23.248;2023-09-12T10:32:05;1.75;;;1.60;;
20110;SDS011;10216;42.658;23.248;2023-09-12T10:34:31;1.70;;;1.60;;
20110;SDS011;10216;42.658;23.248;2023-09-12T10:36:58;2.50;;;1.52;;
20110;SDS011;10216;42.658;23.248;2023-09-12T10:39:24;1.77;;;1.67;;
20110;SDS011;10216;42.658;23.248;2023-09-12T10:41:51;2.83;;;1.52;;
20110;SDS011;10216;42.658;23.248;2023-09-12T10:44:17;1.50;;;1.40;;
20110;SDS011;10216;42.658;23.248;2023-09-12T10:46:44;2.38;;;1.50;;
20110;SDS011;10216;42.658;23.248;2023-09-12T10:49:11;2.83;;;1.88;;
20110;SDS011;10216;42.658;23.248;2023-09-12T10:51:39;1.70;;;1.60;;
20110;SDS011;10216;42.658;23.248;2023-09-12T10:54:05;2.05;;;1.77;;
20110;SDS011;10216;42.658;23.248;2023-09-12T10:56:31;1.60;;;1.38;;
20110;SDS011;10216;42.658;23.248;2023-09-12T11:01:28;1.65;;;1.55;;
20110;SDS011;10216;42.658;23.248;2023-09-12T11:03:54;2.28;;;1.75;;
20110;SDS011;10216;42.658;23.248;2023-09-12T11:06:20;2.15;;;1.50;;
20110;SDS011;10216;42.658;23.248;2023-09-12T11:08:59;3.10;;;1.70;;
20110;SDS011;10216;42.658;23.248;2023-09-12T11:11:31;1.88;;;1.65;;
20110;SDS011;10216;42.658;23.248;2023-09-12T11:14:03;1.50;;;1.40;;
20110;SDS011;10216;42.658;23.248;2023-09-12T11:16:29;2.33;;;1.60;;
20110;SDS011;10216;42.658;23.248;2023-09-12T11:21:44;1.70;;;1.60;;
20110;SDS011;10216;42.658;23.248;2023-09-12T11:24:10;2.95;;;1.50;;
20110;SDS011;10216;42.658;23.248;2023-09-12T11:26:35;1.48;;;1.13;;
20110;SDS011;10216;42.658;23.248;2023-09-12T11:29:10;1.75;;;1.58;;
20110;SDS011;10216;42.658;23.248;2023-09-12T11:31:36;2.00;;;1.80;;
20110;SDS011;10216;42.658;23.248;2023-09-12T11:34:07;1.70;;;1.60;;
20110;SDS011;10216;42.658;23.248;2023-09-12T11:36:37;1.77;;;1.63;;
20110;SDS011;10216;42.658;23.248;2023-09-12T11:39:02;2.50;;;1.30;;
20110;SDS011;10216;42.658;23.248;2023-09-12T11:41:46;2.35;;;1.38;;
20110;SDS011;10216;42.658;23.248;2023-09-12T11:44:11;1.45;;;1.15;;
20110;SDS011;10216;42.658;23.248;2023-09-12T11:46:37;1.70;;;1.52;;
20110;SDS011;10216;42.658;23.248;2023-09-12T11:49:03;1.50;;;1.40;;
20110;SDS011;10216;42.658;23.248;2023-09-12T11:51:28;1.88;;;1.67;;
20110;SDS011;10216;42.658;23.248;2023-09-12T11:53:54;2.28;;;1.98;;
20110;SDS011;10216;42.658;23.248;2023-09-12T11:56:21;2.05;;;1.50;;
20110;SDS011;10216;42.658;23.248;2023-09-12T11:58:47;1.67;;;1.55;;
20110;SDS011;10216;42.658;23.248;2023-09-12T12:01:14;1.70;;;1.48;;
20110;SDS011;10216;42.658;23.248;2023-09-12T12:03:39;1.38;;;1.27;;
20110;SDS011;10216;42.658;23.248;2023-09-12T12:06:04;1.90;;;1.50;;
20110;SDS011;10216;42.658;23.248;2023-09-12T12:08:30;1.50;;;1.40;;
20110;SDS011;10216;42.658;23.248;2023-09-12T12:10:56;3.38;;;1.40;;
20110;SDS011;10216;42.658;23.248;2023-09-12T12:13:23;1.48;;;1.35;;
20110;SDS011;10216;42.658;23.248;2023-09-12T12:15:48;1.50;;;1.40;;
20110;SDS011;10216;42.658;23.248;2023-09-12T12:18:13;1.58;;;1.40;;
20110;SDS011;10216;42.658;23.248;2023-09-12T12:20:39;1.83;;;1.67;;
20110;SDS011;10216;42.658;23.248;2023-09-12T12:23:04;1.30;;;1.20;;
20110;SDS011;10216;42.658;23.248;2023-09-12T12:25:33;1.50;;;1.40;;
20110;SDS011;10216;42.658;23.248;2023-09-12T12:27:59;1.70;;;1.60;;
20110;SDS011;10216;42.658;23.248;2023-09-12T12:30:24;1.55;;;1.45;;
20110;SDS011;10216;42.658;23.248;2023-09-12T12:32:49;1.30;;;1.17;;
20110;SDS011;10216;42.658;23.248;2023-09-12T12:35:18;1.90;;;1.40;;
20110;SDS011;10216;42.658;23.248;2023-09-12T12:37:43;2.10;;;1.45;;
20110;SDS011;10216;42.658;23.248;2023-09-12T12:40:11;1.67;;;1.58;;
20110;SDS011;10216;42.658;23.248;2023-09-12T12:42:38;1.88;;;1.65;;
20110;SDS011;10216;42.658;23.248;2023-09-12T12:45:10;1.50;;;1.40;;
20110;SDS011;10216;42.658;23.248;2023-09-12T12:47:35;1.40;;;1.30;;
20110;SDS011;10216;42.658;23.248;2023-09-12T12:50:01;1.60;;;1.50;;
20110;SDS011;10216;42.658;23.248;2023-09-12T12:52:26;2.13;;;1.90;;
20110;SDS011;10216;42.658;23.248;2023-09-12T12:54:51;1.75;;;1.50;;
20110;SDS011;10216;42.658;23.248;2023-09-12T12:57:19;1.83;;;1.30;;
20110;SDS011;10216;42.658;23.248;2023-09-12T12:59:45;1.30;;;1.20;;
20110;SDS011;10216;42.658;23.248;2023-09-12T13:02:11;1.42;;;1.33;;
20110;SDS011;10216;42.658;23.248;2023-09-12T13:04:36;1.50;;;1.40;;
20110;SDS011;10216;42.658;23.248;2023-09-12T13:07:02;1.42;;;1.33;;
20110;SDS011;10216;42.658;23.248;2023-09-12T13:09:27;2.40;;;2.03;;
20110;SDS011;10216;42.658;23.248;2023-09-12T13:11:53;1.40;;;1.30;;
20110;SDS011;10216;42.658;23.248;2023-09-12T13:14:18;2.20;;;1.48;;
20110;SDS011;10216;42.658;23.248;2023-09-12T13:16:44;1.50;;;1.40;;
20110;SDS011;10216;42.658;23.248;2023-09-12T13:19:09;1.92;;;1.50;;
20110;SDS011;10216;42.658;23.248;2023-09-12T13:21:36;2.00;;;1.58;;
20110;SDS011;10216;42.658;23.248;2023-09-12T13:24:02;1.52;;;1.40;;
20110;SDS011;10216;42.658;23.248;2023-09-12T13:26:27;1.90;;;1.50;;
20110;SDS011;10216;42.658;23.248;2023-09-12T13:28:53;2.15;;;1.88;;
20110;SDS011;10216;42.658;23.248;2023-09-12T13:31:19;1.50;;;1.40;;
20110;SDS011;10216;42.658;23.248;2023-09-12T13:33:44;1.00;;;1.00;;
20110;SDS011;10216;42.658;23.248;2023-09-12T13:36:09;1.80;;;1.70;;
20110;SDS011;10216;42.658;23.248;2023-09-12T13:38:34;1.85;;;1.40;;
20110;SDS011;10216;42.658;23.248;2023-09-12T13:41:00;1.80;;;1.20;;
20110;SDS011;10216;42.658;23.248;2023-09-12T13:43:25;2.17;;;1.58;;
20110;SDS011;10216;42.658;23.248;2023-09-12T13:45:50;1.30;;;1.20;;
20110;SDS011;10216;42.658;23.248;2023-09-12T13:48:15;1.80;;;1.40;;
20110;SDS011;10216;42.658;23.248;2023-09-12T13:50:41;2.72;;;1.50;;
20110;SDS011;10216;42.658;23.248;2023-09-12T13:53:08;1.30;;;1.20;;
20110;SDS011;10216;42.658;23.248;2023-09-12T13:55:33;3.38;;;1.67;;
20110;SDS011;10216;42.658;23.248;2023-09-12T13:58:05;2.30;;;1.80;;
20110;SDS011;10216;42.658;23.248;2023-09-12T14:00:31;1.77;;;1.30;;
20110;SDS011;10216;42.658;23.248;2023-09-12T14:02:57;1.80;;;1.33;;
20110;SDS011;10216;42.658;23.248;2023-09-12T14:05:22;1.77;;;1.52;;
20110;SDS011;10216;42.658;23.248;2023-09-12T14:07:48;3.97;;;1.60;;
20110;SDS011;10216;42.658;23.248;2023-09-12T14:10:13;1.88;;;1.40;;
20110;SDS011;10216;42.658;23.248;2023-09-12T14:12:38;2.08;;;1.60;;
20110;SDS011;10216;42.658;23.248;2023-09-12T14:15:04;1.38;;;1.27;;
20110;SDS011;10216;42.658;23.248;2023-09-12T14:17:31;1.88;;;1.60;;
20110;SDS011;10216;42.658;23.248;2023-09-12T14:19:56;2.90;;;1.65;;
20110;SDS011;10216;42.658;23.248;2023-09-12T14:22:22;3.75;;;1.48;;
20110;SDS011;10216;42.658;23.248;2023-09-12T14:24:47;1.40;;;1.30;;
20110;SDS011;10216;42.658;23.248;2023-09-12T14:27:12;2.47;;;1.70;;
20110;SDS011;10216;42.658;23.248;2023-09-12T14:29:37;2.38;;;1.65;;
20110;SDS011;10216;42.658;23.248;2023-09-12T14:32:03;2.72;;;1.40;;
20110;SDS011;10216;42.658;23.248;2023-09-12T14:34:28;2.30;;;1.60;;
20110;SDS011;10216;42.658;23.248;2023-09-12T14:36:54;2.67;;;1.35;;
20110;SDS011;10216;42.658;23.248;2023-09-12T14:39:20;1.35;;;1.25;;